Time;durP1;ratioP1;P1;durP2;ratioP2;P2;SDS_P1;SDS_P2;PMS_P1;PMS_P2;Temp;Humidity;BMP_temperature;BMP_pressure;BME280_temperature;BME280_humidity;BME280_pressure;Samples;Min_cycle;Max_cycle;Signal;HPM_P1;HPM_P2
2021/11/20 00:00:56;;;;;;;;;;;;;;;;;;5079423;28;20379;-92
2021/11/20 00:03:22;;;;;;;;;;;;;;;;;;5089293;28;19915;-92
2021/11/20 00:05:50;;;;;;;;;;;;;;;;;;5090017;28;19904;-91
2021/11/20 00:08:16;;;;;;;;;;;;;;;;;;5083572;28;19966;-90
2021/11/20 00:10:42;;;;;;;;;;;;;;;;;;5089814;28;19943;-90
2021/11/20 00:13:08;;;;;;;;;;;;;;;;;;5071962;28;20342;-91
2021/11/20 00:15:34;;;;;;;;;;;;;;;;;;5073570;28;19908;-91
2021/11/20 00:18:00;;;;;;;;;;;;;;;;;;5088048;28;19910;-91
2021/11/20 00:20:26;;;;;;;;;;;;;;;;;;5088917;28;19907;-91
2021/11/20 00:22:52;;;;;;;;;;;;;;;;;;5085904;28;19925;-92
2021/11/20 00:25:21;;;;;;;;;;;;;;;;;;5074058;28;20414;-91
2021/11/20 00:27:47;;;;;;;;;;;;;;;;;;5072596;28;19904;-90
2021/11/20 00:30:15;;;;;;;;;;;;;;;;;;5077019;28;19916;-91
2021/11/20 00:32:41;;;;;;;;;;;;;;;;;;5083503;28;20298;-90
2021/11/20 00:35:07;;;;;;;;;;;;;;;;;;5077208;28;19912;-87
2021/11/20 00:37:33;;;;;;;;;;;;;;;;;;5089369;28;19912;-89
2021/11/20 00:39:59;;;;;;;;;;;;;;;;;;5084898;28;19944;-87
2021/11/20 00:42:25;;;;;;;;;;;;;;;;;;5081983;28;19908;-94
2021/11/20 00:44:51;;;;;;;;;;;;;;;;;;5086089;28;19919;-86
2021/11/20 00:47:17;;;;;;;;;;;;;;;;;;5079317;28;20636;-87
2021/11/20 00:49:43;;;;;;;;;;;;;;;;;;5077708;28;20732;-88
2021/11/20 00:52:08;;;;;;;;;;;;;;;;;;5086616;28;19923;-87
2021/11/20 00:54:34;;;;;;;;;;;;;;;;;;5080763;28;19908;-88
2021/11/20 00:57:00;;;;;;;;;;;;;;;;;;5074682;28;19912;-87
2021/11/20 00:59:26;;;;;;;;;;;;;;;;;;5069435;28;19965;-86
2021/11/20 01:01:52;;;;;;;;;;;;;;;;;;5072105;28;20471;-87
2021/11/20 01:04:18;;;;;;;;;;;;;;;;;;5068207;28;20003;-87
2021/11/20 01:06:44;;;;;;;;;;;;;;;;;;5067257;28;19912;-87
2021/11/20 01:09:13;;;;;;;;;;;;;;;;;;5070844;28;19942;-88
2021/11/20 01:11:38;;;;;;;;;;;;;;;;;;5085937;28;19911;-89
2021/11/20 01:14:04;;;;;;;;;;;;;;;;;;5082099;28;20023;-91
2021/11/20 01:16:30;;;;;;;;;;;;;;;;;;5086897;28;19908;-90
2021/11/20 01:18:56;;;;;;;;;;;;;;;;;;5089280;28;19908;-91
2021/11/20 01:21:22;;;;;;;;;;;;;;;;;;5068405;28;19916;-91
2021/11/20 01:23:48;;;;;;;;;;;;;;;;;;5085611;28;19950;-94
2021/11/20 01:26:14;;;;;;;;;;;;;;;;;;5083030;28;20019;-93
2021/11/20 01:28:40;;;;;;;;;;;;;;;;;;5099072;28;20023;-93
2021/11/20 01:31:06;;;;;;;;;;;;;;;;;;5087958;28;19995;-93
2021/11/20 01:33:32;;;;;;;;;;;;;;;;;;5084818;28;20378;-94
2021/11/20 01:35:58;;;;;;;;;;;;;;;;;;5086134;28;19912;-94
2021/11/20 01:38:23;;;;;;;;;;;;;;;;;;5092556;28;19908;-93
2021/11/20 01:40:49;;;;;;;;;;;;;;;;;;5092934;28;20053;-95
2021/11/20 01:43:15;;;;;;;;;;;;;;;;;;5091540;28;19919;-94
2021/11/20 01:45:41;;;;;;;;;;;;;;;;;;5092933;28;20447;-93
2021/11/20 01:48:07;;;;;;;;;;;;;;;;;;5091115;28;20442;-94
2021/11/20 01:50:33;;;;;;;;;;;;;;;;;;5091538;28;20291;-94
2021/11/20 01:52:59;;;;;;;;;;;;;;;;;;5090492;28;19919;-93
2021/11/20 01:55:25;;;;;;;;;;;;;;;;;;5099741;28;19919;-93
2021/11/20 01:57:51;;;;;;;;;;;;;;;;;;5092065;28;19915;-92
2021/11/20 02:00:17;;;;;;;;;;;;;;;;;;5085966;28;19904;-93
2021/11/20 02:02:43;;;;;;;;;;;;;;;;;;5091304;28;19912;-93
2021/11/20 02:05:11;;;;;;;;;;;;;;;;;;5083181;28;20277;-93
2021/11/20 02:07:37;;;;;;;;;;;;;;;;;;5090939;28;19915;-95
2021/11/20 02:10:02;;;;;;;;;;;;;;;;;;5083277;28;20249;-93
2021/11/20 02:12:28;;;;;;;;;;;;;;;;;;5082939;28;20699;-92
2021/11/20 02:14:54;;;;;;;;;;;;;;;;;;5092204;28;19907;-93
2021/11/20 02:17:20;;;;;;;;;;;;;;;;;;5092476;28;20375;-93
2021/11/20 02:19:46;;;;;;;;;;;;;;;;;;5091448;28;20683;-92
2021/11/20 02:22:12;;;;;;;;;;;;;;;;;;5089897;28;19920;-92
2021/11/20 02:24:38;;;;;;;;;;;;;;;;;;5073755;28;19909;-93
2021/11/20 02:27:04;;;;;;;;;;;;;;;;;;5100754;28;20003;-95
2021/11/20 02:29:30;;;;;;;;;;;;;;;;;;5091463;28;20002;-93
2021/11/20 02:31:56;;;;;;;;;;;;;;;;;;5088267;28;20390;-93
2021/11/20 02:34:22;;;;;;;;;;;;;;;;;;5084199;28;20421;-87
2021/11/20 02:36:47;;;;;;;;;;;;;;;;;;5080539;28;19919;-86
2021/11/20 02:39:14;;;;;;;;;;;;;;;;;;5085067;28;20007;-86
2021/11/20 02:41:40;;;;;;;;;;;;;;;;;;5083546;28;19912;-86
2021/11/20 02:44:06;;;;;;;;;;;;;;;;;;5083384;28;20002;-88
2021/11/20 02:46:32;;;;;;;;;;;;;;;;;;5082283;28;20371;-87
2021/11/20 02:48:58;;;;;;;;;;;;;;;;;;5082851;28;19991;-87
2021/11/20 02:51:24;;;;;;;;;;;;;;;;;;5084517;28;19999;-86
2021/11/20 02:53:50;;;;;;;;;;;;;;;;;;5080885;28;19911;-86
2021/11/20 02:56:16;;;;;;;;;;;;;;;;;;5084187;28;19907;-87
2021/11/20 02:58:42;;;;;;;;;;;;;;;;;;5078607;28;19996;-86
2021/11/20 03:01:08;;;;;;;;;;;;;;;;;;5081768;28;19916;-87
2021/11/20 03:03:36;;;;;;;;;;;;;;;;;;5087504;28;20367;-93
2021/11/20 03:06:02;;;;;;;;;;;;;;;;;;5086141;28;19956;-94
2021/11/20 03:08:28;;;;;;;;;;;;;;;;;;5088458;28;19916;-92
2021/11/20 03:10:54;;;;;;;;;;;;;;;;;;5087041;28;19916;-93
2021/11/20 03:13:26;;;;;;;;;;;;;;;;;;5088177;28;20355;-94
2021/11/20 03:15:52;;;;;;;;;;;;;;;;;;5100730;28;19911;-90
2021/11/20 03:18:18;;;;;;;;;;;;;;;;;;5085777;28;19995;-91
2021/11/20 03:20:44;;;;;;;;;;;;;;;;;;5085115;28;19912;-87
2021/11/20 03:23:10;;;;;;;;;;;;;;;;;;5100591;28;20884;-87
2021/11/20 03:25:36;;;;;;;;;;;;;;;;;;5099605;28;19915;-88
2021/11/20 03:28:02;;;;;;;;;;;;;;;;;;5098897;28;19915;-91
2021/11/20 03:30:27;;;;;;;;;;;;;;;;;;5087635;28;20448;-91
2021/11/20 03:32:53;;;;;;;;;;;;;;;;;;5084715;28;19911;-86
2021/11/20 03:35:19;;;;;;;;;;;;;;;;;;5088509;28;20362;-86
2021/11/20 03:37:46;;;;;;;;;;;;;;;;;;5095452;28;19950;-84
2021/11/20 03:40:12;;;;;;;;;;;;;;;;;;5088070;28;19919;-86
2021/11/20 03:42:38;;;;;;;;;;;;;;;;;;5091266;28;19911;-86
2021/11/20 03:45:04;;;;;;;;;;;;;;;;;;5090650;28;20712;-86
2021/11/20 03:47:29;;;;;;;;;;;;;;;;;;5085835;28;19908;-89
2021/11/20 03:49:55;;;;;;;;;;;;;;;;;;5080889;28;20011;-87
2021/11/20 03:52:21;;;;;;;;;;;;;;;;;;5078209;28;19912;-89
2021/11/20 03:54:47;;;;;;;;;;;;;;;;;;5081818;28;20752;-92
2021/11/20 03:57:13;;;;;;;;;;;;;;;;;;5088178;28;19958;-90
2021/11/20 03:59:39;;;;;;;;;;;;;;;;;;5100087;28;19916;-91
2021/11/20 04:02:05;;;;;;;;;;;;;;;;;;5080713;28;19916;-92
2021/11/20 04:04:31;;;;;;;;;;;;;;;;;;5087395;28;20341;-91
2021/11/20 04:06:57;;;;;;;;;;;;;;;;;;5099483;28;19990;-87
2021/11/20 04:09:23;;;;;;;;;;;;;;;;;;5074631;28;20291;-87
2021/11/20 04:11:48;;;;;;;;;;;;;;;;;;5082542;28;19922;-87
2021/11/20 04:14:14;;;;;;;;;;;;;;;;;;5078398;28;19918;-85
2021/11/20 04:16:40;;;;;;;;;;;;;;;;;;5082179;28;19912;-86
2021/11/20 04:19:06;;;;;;;;;;;;;;;;;;5068686;28;20403;-86
2021/11/20 04:21:32;;;;;;;;;;;;;;;;;;5076540;28;19931;-86
2021/11/20 04:23:58;;;;;;;;;;;;;;;;;;5069873;28;19916;-86
2021/11/20 04:26:24;;;;;;;;;;;;;;;;;;5082388;28;19905;-89
2021/11/20 04:28:50;;;;;;;;;;;;;;;;;;5083582;28;19922;-89
2021/11/20 04:31:16;;;;;;;;;;;;;;;;;;5083373;28;20367;-87
2021/11/20 04:33:42;;;;;;;;;;;;;;;;;;5085443;28;19908;-86
2021/11/20 04:36:08;;;;;;;;;;;;;;;;;;5079249;28;20349;-91
2021/11/20 04:38:34;;;;;;;;;;;;;;;;;;5082888;28;19977;-91
2021/11/20 04:41:00;;;;;;;;;;;;;;;;;;5086081;28;19904;-88
2021/11/20 04:43:26;;;;;;;;;;;;;;;;;;5080675;28;19916;-88
2021/11/20 04:45:52;;;;;;;;;;;;;;;;;;5080492;28;19965;-87
2021/11/20 04:48:18;;;;;;;;;;;;;;;;;;5077430;28;20011;-87
2021/11/20 04:50:44;;;;;;;;;;;;;;;;;;5079242;28;19998;-88
2021/11/20 04:53:10;;;;;;;;;;;;;;;;;;5080004;28;19912;-89
2021/11/20 04:55:36;;;;;;;;;;;;;;;;;;5093697;28;19908;-87
2021/11/20 04:58:02;;;;;;;;;;;;;;;;;;5086889;28;20470;-89
2021/11/20 05:00:28;;;;;;;;;;;;;;;;;;5087979;28;20420;-88
2021/11/20 05:02:54;;;;;;;;;;;;;;;;;;5081609;28;19912;-87
2021/11/20 05:05:20;;;;;;;;;;;;;;;;;;5084706;28;19919;-89
2021/11/20 05:07:46;;;;;;;;;;;;;;;;;;5089824;28;19912;-90
2021/11/20 05:10:12;;;;;;;;;;;;;;;;;;5092043;28;19959;-90
2021/11/20 05:12:38;;;;;;;;;;;;;;;;;;5088690;28;19915;-90
2021/11/20 05:15:04;;;;;;;;;;;;;;;;;;5082190;28;20034;-91
2021/11/20 05:17:30;;;;;;;;;;;;;;;;;;5101247;28;19947;-88
2021/11/20 05:19:56;;;;;;;;;;;;;;;;;;5088285;28;19947;-90
2021/11/20 05:22:22;;;;;;;;;;;;;;;;;;5097564;28;20026;-89
2021/11/20 05:24:48;;;;;;;;;;;;;;;;;;5090073;28;20332;-91
2021/11/20 05:27:14;;;;;;;;;;;;;;;;;;5092126;28;19908;-92
2021/11/20 05:32:12;;;;;;;;;;;;;;;;;;5092483;28;19916;-90
2021/11/20 05:34:38;;;;;;;;;;;;;;;;;;5090607;28;20278;-88
2021/11/20 05:37:04;;;;;;;;;;;;;;;;;;5090654;28;19911;-90
2021/11/20 05:39:31;;;;;;;;;;;;;;;;;;5084118;28;20037;-90
2021/11/20 05:41:57;;;;;;;;;;;;;;;;;;5096634;28;19908;-92
2021/11/20 05:44:23;;;;;;;;;;;;;;;;;;5089503;28;19914;-91
2021/11/20 05:46:51;;;;;;;;;;;;;;;;;;5092293;28;20282;-89
2021/11/20 05:49:17;;;;;;;;;;;;;;;;;;5090844;28;19926;-88
2021/11/20 05:51:42;;;;;;;;;;;;;;;;;;5089527;28;20241;-87
2021/11/20 05:54:08;;;;;;;;;;;;;;;;;;5081228;28;19919;-85
2021/11/20 05:56:34;;;;;;;;;;;;;;;;;;5080400;28;19929;-87
2021/11/20 05:59:00;;;;;;;;;;;;;;;;;;5089442;28;20424;-88
2021/11/20 06:01:26;;;;;;;;;;;;;;;;;;5092110;28;19912;-92
2021/11/20 06:03:52;;;;;;;;;;;;;;;;;;5091574;28;19908;-92
2021/11/20 06:06:18;;;;;;;;;;;;;;;;;;5088823;28;19918;-91
2021/11/20 06:08:44;;;;;;;;;;;;;;;;;;5089573;28;19915;-91
2021/11/20 06:11:17;;;;;;;;;;;;;;;;;;5089950;28;19916;-95
2021/11/20 06:13:43;;;;;;;;;;;;;;;;;;5093640;28;19976;-94
2021/11/20 06:16:09;;;;;;;;;;;;;;;;;;5074366;22;20478;-83
2021/11/20 06:18:35;;;;;;;;;;;;;;;;;;5037886;28;20007;-84
2021/11/20 06:21:01;;;;;;;;;;;;;;;;;;5036482;28;19917;-84
2021/11/20 06:23:27;;;;;;;;;;;;;;;;;;5034676;28;19912;-83
2021/11/20 06:25:53;;;;;;;;;;;;;;;;;;5040193;28;20857;-84
2021/11/20 06:28:19;;;;;;;;;;;;;;;;;;5042385;28;20186;-83
2021/11/20 06:30:45;;;;;;;;;;;;;;;;;;5040627;28;19913;-84
2021/11/20 06:33:11;;;;;;;;;;;;;;;;;;5042825;28;19912;-84
2021/11/20 06:35:36;;;;;;;;;;;;;;;;;;5035526;28;19912;-84
2021/11/20 06:38:02;;;;;;;;;;;;;;;;;;5044878;28;19966;-85
2021/11/20 06:40:28;;;;;;;;;;;;;;;;;;5034584;28;19916;-84
2021/11/20 06:42:54;;;;;;;;;;;;;;;;;;5040744;28;20398;-84
2021/11/20 06:45:20;;;;;;;;;;;;;;;;;;5043709;28;19917;-85
2021/11/20 06:47:46;;;;;;;;;;;;;;;;;;5036175;28;20397;-84
2021/11/20 06:50:12;;;;;;;;;;;;;;;;;;5043013;28;19921;-83
2021/11/20 06:52:38;;;;;;;;;;;;;;;;;;5047622;28;19917;-81
2021/11/20 06:55:04;;;;;;;;;;;;;;;;;;5034269;28;19955;-82
2021/11/20 07:02:50;;;;;;;;;;;;;;;;;;5042392;28;19924;-84
2021/11/20 07:05:18;;;;;;;;;;;;;;;;;;5041928;28;20370;-83
2021/11/20 07:07:44;;;;;;;;;;;;;;;;;;5043677;28;19919;-84
2021/11/20 07:10:10;;;;;;;;;;;;;;;;;;5039727;28;20372;-83
2021/11/20 07:12:36;;;;;;;;;;;;;;;;;;5039760;28;19927;-82
2021/11/20 07:15:01;;;;;;;;;;;;;;;;;;5036237;28;20024;-83
2021/11/20 07:17:27;;;;;;;;;;;;;;;;;;5033655;28;20000;-83
2021/11/20 07:19:54;;;;;;;;;;;;;;;;;;5033652;28;20292;-83
2021/11/20 07:22:20;;;;;;;;;;;;;;;;;;5034133;28;20281;-82
2021/11/20 07:24:47;;;;;;;;;;;;;;;;;;5034418;28;19912;-83
2021/11/20 07:27:13;;;;;;;;;;;;;;;;;;5032441;28;19920;-82
2021/11/20 07:29:39;;;;;;;;;;;;;;;;;;5033302;28;19940;-83
2021/11/20 07:32:07;;;;;;;;;;;;;;;;;;5036193;28;19916;-83
2021/11/20 07:34:33;;;;;;;;;;;;;;;;;;5034664;28;20647;-83
2021/11/20 07:36:59;;;;;;;;;;;;;;;;;;5052674;28;19917;-83
2021/11/20 07:39:24;;;;;;;;;;;;;;;;;;5034121;28;19908;-83
2021/11/20 07:41:51;;;;;;;;;;;;;;;;;;5040483;28;19913;-85
2021/11/20 07:44:17;;;;;;;;;;;;;;;;;;5046476;28;20032;-84
2021/11/20 07:46:43;;;;;;;;;;;;;;;;;;5046251;28;20326;-86
2021/11/20 07:49:09;;;;;;;;;;;;;;;;;;5043233;28;19925;-82
2021/11/20 07:51:35;;;;;;;;;;;;;;;;;;5036508;28;19917;-82
2021/11/20 07:54:01;;;;;;;;;;;;;;;;;;5039523;28;20377;-82
2021/11/20 07:56:28;;;;;;;;;;;;;;;;;;5039288;28;19912;-82
2021/11/20 07:58:54;;;;;;;;;;;;;;;;;;5035377;28;20341;-83
2021/11/20 08:01:22;;;;;;;;;;;;;;;;;;5044338;28;20441;-85
2021/11/20 08:03:49;;;;;;;;;;;;;;;;;;5042573;28;19987;-85
2021/11/20 08:06:15;;;;;;;;;;;;;;;;;;5045615;28;19916;-87
2021/11/20 08:08:41;;;;;;;;;;;;;;;;;;5041925;28;20422;-86
2021/11/20 08:11:07;;;;;;;;;;;;;;;;;;5041637;28;19913;-87
2021/11/20 08:13:35;;;;;;;;;;;;;;;;;;5045250;28;19913;-83
2021/11/20 08:16:01;;;;;;;;;;;;;;;;;;5044453;28;19928;-84
2021/11/20 08:18:27;;;;;;;;;;;;;;;;;;5045978;28;19916;-83
2021/11/20 08:20:53;;;;;;;;;;;;;;;;;;5046432;28;19919;-83
2021/11/20 08:23:18;;;;;;;;;;;;;;;;;;5047186;28;19931;-86
2021/11/20 08:25:44;;;;;;;;;;;;;;;;;;5043604;28;19912;-85
2021/11/20 08:28:10;;;;;;;;;;;;;;;;;;5039833;28;19932;-84
2021/11/20 08:30:36;;;;;;;;;;;;;;;;;;5040537;28;20397;-84
2021/11/20 08:33:02;;;;;;;;;;;;;;;;;;5039646;28;19955;-84
2021/11/20 08:35:28;;;;;;;;;;;;;;;;;;5032951;28;19952;-84
2021/11/20 08:37:54;;;;;;;;;;;;;;;;;;5042076;28;19912;-84
2021/11/20 08:40:20;;;;;;;;;;;;;;;;;;5052458;28;19916;-83
2021/11/20 08:42:46;;;;;;;;;;;;;;;;;;5039208;28;20698;-84
2021/11/20 08:45:12;;;;;;;;;;;;;;;;;;5039885;28;20003;-84
2021/11/20 08:47:38;;;;;;;;;;;;;;;;;;5039415;28;19975;-85
2021/11/20 08:50:03;;;;;;;;;;;;;;;;;;5041619;28;20008;-83
2021/11/20 08:52:29;;;;;;;;;;;;;;;;;;5041595;28;20636;-86
2021/11/20 08:54:58;;;;;;;;;;;;;;;;;;5037976;28;19958;-86
2021/11/20 08:57:24;;;;;;;;;;;;;;;;;;5035515;28;19949;-86
2021/11/20 08:59:50;;;;;;;;;;;;;;;;;;5038773;28;19917;-86
2021/11/20 09:02:16;;;;;;;;;;;;;;;;;;5039607;28;19913;-87
2021/11/20 09:04:42;;;;;;;;;;;;;;;;;;5038090;28;20362;-84
2021/11/20 09:07:08;;;;;;;;;;;;;;;;;;5037377;28;19979;-82
2021/11/20 09:09:34;;;;;;;;;;;;;;;;;;5039851;28;20399;-83
2021/11/20 09:12:00;;;;;;;;;;;;;;;;;;5033334;28;19923;-83
2021/11/20 09:14:28;;;;;;;;;;;;;;;;;;5032418;28;19951;-82
2021/11/20 09:16:58;;;;;;;;;;;;;;;;;;5033857;28;19921;-86
2021/11/20 09:19:24;;;;;;;;;;;;;;;;;;5035520;28;19954;-89
2021/11/20 09:21:50;;;;;;;;;;;;;;;;;;5039953;28;20384;-88
2021/11/20 09:24:16;;;;;;;;;;;;;;;;;;5032116;28;19909;-84
2021/11/20 09:26:42;;;;;;;;;;;;;;;;;;5030693;28;21305;-85
2021/11/20 09:29:08;;;;;;;;;;;;;;;;;;5029919;28;19925;-85
2021/11/20 09:31:34;;;;;;;;;;;;;;;;;;5038255;28;19917;-85
2021/11/20 09:34:00;;;;;;;;;;;;;;;;;;5032843;28;20338;-85
2021/11/20 09:36:25;;;;;;;;;;;;;;;;;;5034718;28;19917;-84
2021/11/20 09:38:51;;;;;;;;;;;;;;;;;;5031389;28;19954;-84
2021/11/20 09:41:17;;;;;;;;;;;;;;;;;;5030957;28;20011;-83
2021/11/20 09:43:43;;;;;;;;;;;;;;;;;;5038559;28;19920;-84
2021/11/20 09:46:09;;;;;;;;;;;;;;;;;;5036839;28;19944;-84
2021/11/20 09:48:35;;;;;;;;;;;;;;;;;;5037530;28;19939;-86
2021/11/20 09:51:01;;;;;;;;;;;;;;;;;;5039510;28;19917;-84
2021/11/20 09:53:27;;;;;;;;;;;;;;;;;;5033039;28;20396;-86
2021/11/20 09:55:53;;;;;;;;;;;;;;;;;;5033512;28;19920;-87
2021/11/20 09:58:19;;;;;;;;;;;;;;;;;;5040126;28;20385;-85
2021/11/20 10:00:45;;;;;;;;;;;;;;;;;;5033584;28;19947;-85
2021/11/20 10:03:11;;;;;;;;;;;;;;;;;;5035342;28;19999;-85
2021/11/20 10:05:37;;;;;;;;;;;;;;;;;;5039903;28;20003;-87
2021/11/20 10:08:03;;;;;;;;;;;;;;;;;;5040117;28;19913;-86
2021/11/20 10:10:29;;;;;;;;;;;;;;;;;;5041171;28;19921;-84
2021/11/20 10:12:55;;;;;;;;;;;;;;;;;;5046949;28;19915;-87
2021/11/20 10:15:21;;;;;;;;;;;;;;;;;;5043805;28;20362;-84
2021/11/20 10:17:47;;;;;;;;;;;;;;;;;;5038771;28;20011;-84
2021/11/20 10:20:14;;;;;;;;;;;;;;;;;;5035913;28;19912;-86
2021/11/20 10:22:40;;;;;;;;;;;;;;;;;;5038796;28;19967;-86
2021/11/20 10:25:06;;;;;;;;;;;;;;;;;;5028473;28;20023;-86
2021/11/20 10:27:32;;;;;;;;;;;;;;;;;;5041404;28;19994;-86
2021/11/20 10:29:58;;;;;;;;;;;;;;;;;;5036898;28;20004;-86
2021/11/20 10:32:24;;;;;;;;;;;;;;;;;;5037243;28;19999;-86
2021/11/20 10:34:50;;;;;;;;;;;;;;;;;;5040384;28;19920;-85
2021/11/20 10:37:16;;;;;;;;;;;;;;;;;;5035304;28;19924;-87
2021/11/20 10:39:42;;;;;;;;;;;;;;;;;;5037117;28;19913;-87
2021/11/20 10:42:08;;;;;;;;;;;;;;;;;;5036645;28;19912;-87
2021/11/20 10:44:34;;;;;;;;;;;;;;;;;;5035974;28;20575;-86
2021/11/20 10:47:00;;;;;;;;;;;;;;;;;;5040200;28;19923;-85
2021/11/20 10:49:26;;;;;;;;;;;;;;;;;;5040316;28;19921;-87
2021/11/20 10:51:52;;;;;;;;;;;;;;;;;;5028966;28;20350;-88
2021/11/20 10:54:17;;;;;;;;;;;;;;;;;;5042151;28;20373;-86
2021/11/20 10:56:43;;;;;;;;;;;;;;;;;;5042285;28;20404;-87
2021/11/20 10:59:10;;;;;;;;;;;;;;;;;;5057190;28;19912;-86
2021/11/20 11:01:36;;;;;;;;;;;;;;;;;;5041824;28;19978;-85
2021/11/20 11:04:02;;;;;;;;;;;;;;;;;;5041399;28;20400;-88
2021/11/20 11:06:27;;;;;;;;;;;;;;;;;;5047772;28;19912;-87
2021/11/20 11:08:54;;;;;;;;;;;;;;;;;;5050305;28;19928;-94
2021/11/20 11:11:20;;;;;;;;;;;;;;;;;;5041885;28;20507;-89
2021/11/20 11:13:46;;;;;;;;;;;;;;;;;;5032570;28;19924;-94
2021/11/20 11:16:12;;;;;;;;;;;;;;;;;;5036711;28;20715;-90
2021/11/20 11:18:38;;;;;;;;;;;;;;;;;;5039464;28;19913;-91
2021/11/20 11:21:04;;;;;;;;;;;;;;;;;;5035015;28;19912;-91
2021/11/20 11:23:30;;;;;;;;;;;;;;;;;;5036294;28;20015;-88
2021/11/20 11:25:57;;;;;;;;;;;;;;;;;;5040142;28;19947;-86
2021/11/20 11:28:24;;;;;;;;;;;;;;;;;;5038319;28;19912;-86
2021/11/20 11:30:50;;;;;;;;;;;;;;;;;;5038356;28;19927;-88
2021/11/20 11:33:15;;;;;;;;;;;;;;;;;;5034725;28;20452;-88
2021/11/20 11:35:41;;;;;;;;;;;;;;;;;;5033928;28;19912;-87
2021/11/20 11:38:08;;;;;;;;;;;;;;;;;;5037479;28;19920;-89
2021/11/20 11:40:34;;;;;;;;;;;;;;;;;;5043728;28;20360;-89
2021/11/20 11:43:00;;;;;;;;;;;;;;;;;;5037055;28;19912;-87
2021/11/20 11:45:26;;;;;;;;;;;;;;;;;;5034994;28;19934;-87
2021/11/20 11:47:52;;;;;;;;;;;;;;;;;;5040059;28;20385;-88
2021/11/20 11:50:17;;;;;;;;;;;;;;;;;;5038490;28;20434;-86
2021/11/20 11:52:44;;;;;;;;;;;;;;;;;;5035128;28;19916;-88
2021/11/20 11:55:09;;;;;;;;;;;;;;;;;;5039797;28;19924;-87
2021/11/20 11:57:35;;;;;;;;;;;;;;;;;;5037626;28;20286;-88
2021/11/20 12:00:02;;;;;;;;;;;;;;;;;;5038977;28;19912;-86
2021/11/20 12:02:27;;;;;;;;;;;;;;;;;;5038441;28;20235;-87
2021/11/20 12:04:53;;;;;;;;;;;;;;;;;;5040520;28;20031;-86
2021/11/20 12:07:19;;;;;;;;;;;;;;;;;;5036077;28;19924;-87
2021/11/20 12:09:47;;;;;;;;;;;;;;;;;;5038438;28;20007;-89
2021/11/20 12:12:13;;;;;;;;;;;;;;;;;;5040602;28;19960;-88
2021/11/20 12:14:39;;;;;;;;;;;;;;;;;;5037396;28;19913;-90
2021/11/20 12:17:05;;;;;;;;;;;;;;;;;;5041150;28;20344;-90
2021/11/20 12:19:33;;;;;;;;;;;;;;;;;;5043289;28;19956;-90
2021/11/20 12:21:59;;;;;;;;;;;;;;;;;;5045693;28;19920;-88
2021/11/20 12:24:25;;;;;;;;;;;;;;;;;;5045788;28;19916;-89
2021/11/20 12:26:52;;;;;;;;;;;;;;;;;;5043819;28;19909;-87
2021/11/20 12:29:18;;;;;;;;;;;;;;;;;;5043031;28;19975;-86
2021/11/20 12:31:44;;;;;;;;;;;;;;;;;;5043591;28;20362;-87
2021/11/20 12:34:10;;;;;;;;;;;;;;;;;;5043239;28;20259;-86
2021/11/20 12:36:35;;;;;;;;;;;;;;;;;;5043595;28;19916;-87
2021/11/20 12:39:01;;;;;;;;;;;;;;;;;;5038146;28;19917;-89
2021/11/20 12:41:27;;;;;;;;;;;;;;;;;;5034800;28;19912;-87
2021/11/20 12:44:32;;;;;;;0.80;0.80;;;;;;;;;;5093069;27;20991;-84
2021/11/20 12:47:17;;;;;;;0.80;0.80;;;;;;;;;;5074063;28;20339;-89
2021/11/20 12:49:43;;;;;;;0.80;0.80;;;;;;;;;;5074925;28;20044;-85
2021/11/20 12:52:27;;;;;;;0.95;0.95;;;;;;;;;;5078169;28;20050;-87
2021/11/20 12:55:09;;;;;;;0.80;0.80;;;;;;;;;;5071618;28;20040;-88
2021/11/20 12:57:40;;;;;;;0.90;0.90;;;;;;;;;;5075718;28;20039;-86
2021/11/20 13:00:10;;;;;;;0.90;0.90;;;;;;;;;;5081270;28;20034;-86
2021/11/20 13:02:42;;;;;;;1.45;1.45;;;;;;;;;;5082063;28;20607;-86
2021/11/20 13:05:19;;;;;;;0.80;0.80;;;;;;;;;;5081386;28;20035;-87
2021/11/20 13:07:48;;;;;;;0.90;0.90;;;;;;;;;;5082070;28;20039;-87
2021/11/20 13:10:20;;;;;;;0.88;0.88;;;;;;;;;;5078786;28;20059;-86
2021/11/20 13:12:47;;;;;;;0.80;0.80;;;;;;;;;;5085164;28;20047;-87
2021/11/20 13:15:19;;;;;;;0.82;0.82;;;;;;;;;;5082831;28;20067;-87
2021/11/20 13:18:05;;;;;;;0.90;0.90;;;;;;;;;;5082849;28;20016;-87
2021/11/20 13:20:34;;;;;;;0.90;0.90;;;;;;;;;;5071447;28;20041;-86
2021/11/20 13:23:07;;;;;;;0.80;0.80;;;;;;;;;;5083658;28;20035;-86
2021/11/20 13:25:42;;;;;;;0.90;0.90;;;;;;;;;;5082641;28;20035;-87
2021/11/20 13:28:09;;;;;;;1.15;1.15;;;;;;;;;;5078317;28;20073;-85
2021/11/20 13:30:36;;;;;;;0.90;0.90;;;;;;;;;;5084693;28;20028;-87
2021/11/20 13:33:04;;;;;;;1.40;1.40;;;;;;;;;;5082504;28;20136;-86
2021/11/20 13:35:38;;;;;;;0.90;0.90;;;;;;;;;;5082495;28;20089;-86
2021/11/20 13:38:05;;;;;;;0.90;0.90;;;;;;;;;;5082940;28;20424;-86
2021/11/20 13:40:33;;;;;;;0.95;0.95;;;;;;;;;;5079174;28;20032;-87
2021/11/20 13:43:00;;;;;;;1.00;1.00;;;;;;;;;;5081675;28;20155;-87
2021/11/20 13:45:26;;;;;;;0.80;0.80;;;;;;;;;;5082935;28;20043;-86
2021/11/20 13:47:53;;;;;;;0.90;0.90;;;;;;;;;;5082033;28;20720;-88
2021/11/20 13:50:19;;;;;;;0.80;0.80;;;;;;;;;;5080960;28;20028;-87
2021/11/20 13:52:46;;;;;;;0.82;0.82;;;;;;;;;;5079551;28;20515;-86
2021/11/20 13:55:13;;;;;;;1.00;1.00;;;;;;;;;;5068177;28;20028;-87
2021/11/20 13:57:40;;;;;;;0.90;0.90;;;;;;;;;;5070378;28;20420;-87
2021/11/20 14:00:17;;;;;;;1.27;1.27;;;;;;;;;;5067383;28;20082;-87
2021/11/20 14:02:43;;;;;;;;;;;;;;;;;;5073557;28;20039;-87
2021/11/20 14:05:09;;;;;;;0.93;0.93;;;;;;;;;;5068137;28;19908;-86
2021/11/20 14:07:35;;;;;;;0.70;0.70;;;;;;;;;;5065895;28;20040;-87
2021/11/20 14:10:10;;;;;;;1.02;1.02;;;;;;;;;;5066046;28;20501;-87
2021/11/20 14:12:51;;;;;;;0.80;0.80;;;;;;;;;;5069172;28;20485;-87
2021/11/20 14:15:18;;;;;;;1.00;1.00;;;;;;;;;;5066914;28;20040;-86
2021/11/20 14:17:44;;;;;;;0.98;0.98;;;;;;;;;;5068403;28;20017;-87
2021/11/20 14:20:15;;;;;;;1.13;1.13;;;;;;;;;;5066159;28;20039;-87
2021/11/20 14:22:42;;;;;;;0.80;0.80;;;;;;;;;;5065888;28;20343;-88
2021/11/20 14:25:17;;;;;;;0.80;0.80;;;;;;;;;;5065021;28;20040;-87
2021/11/20 14:27:53;;;;;;;0.80;0.80;;;;;;;;;;5070591;28;20497;-87
2021/11/20 14:30:19;;;;;;;1.00;1.00;;;;;;;;;;5068841;28;20028;-87
2021/11/20 14:32:45;;;;;;;0.90;0.90;;;;;;;;;;5066332;28;20027;-87
2021/11/20 14:35:11;;;;;;;0.80;0.80;;;;;;;;;;5066033;28;20032;-87
2021/11/20 14:37:37;;;;;;;1.00;1.00;;;;;;;;;;5064857;28;20442;-86
2021/11/20 14:40:08;;;;;;;1.30;1.30;;;;;;;;;;5066135;28;20572;-86
2021/11/20 14:42:40;;;;;;;0.70;0.70;;;;;;;;;;5067816;28;20090;-87
2021/11/20 14:45:19;;;;;;;0.80;0.80;;;;;;;;;;5077703;28;20040;-86
2021/11/20 14:47:46;;;;;;;0.80;0.80;;;;;;;;;;5071831;28;20513;-87
2021/11/20 14:50:21;;;;;;;0.80;0.80;;;;;;;;;;5065044;28;20042;-87
2021/11/20 14:52:48;;;;;;;0.85;0.85;;;;;;;;;;5065630;28;20115;-87
2021/11/20 14:55:14;;;;;;;0.90;0.90;;;;;;;;;;5063682;28;20029;-87
2021/11/20 14:57:41;;;;;;;0.70;0.70;;;;;;;;;;5068456;28;20123;-87
2021/11/20 15:00:10;;;;;;;0.80;0.80;;;;;;;;;;5067502;28;20139;-86
2021/11/20 15:02:37;;;;;;;1.92;1.92;;;;;;;;;;5067189;28;20048;-87
2021/11/20 15:05:03;;;;;;;0.90;0.90;;;;;;;;;;5067421;28;20040;-87
2021/11/20 15:07:30;;;;;;;0.77;0.77;;;;;;;;;;5062880;28;20031;-87
2021/11/20 15:09:56;;;;;;;;;;;;;;;;;;5068164;28;20036;-86
2021/11/20 15:12:22;;;;;;;0.90;0.90;;;;;;;;;;5067851;28;19964;-87
2021/11/20 15:14:48;;;;;;;0.70;0.70;;;;;;;;;;5066752;28;20032;-86
2021/11/20 15:17:14;;;;;;;1.00;1.00;;;;;;;;;;5058102;28;20481;-87
2021/11/20 15:19:40;;;;;;;0.80;0.80;;;;;;;;;;5077995;28;20040;-86
2021/11/20 15:22:07;;;;;;;1.73;1.73;;;;;;;;;;5063612;28;20028;-87
2021/11/20 15:24:33;;;;;;;0.80;0.80;;;;;;;;;;5071495;28;20628;-87
2021/11/20 15:27:01;;;;;;;0.80;0.80;;;;;;;;;;5068883;28;20024;-86
2021/11/20 15:29:27;;;;;;;1.00;1.00;;;;;;;;;;5066816;28;20052;-86
2021/11/20 15:31:55;;;;;;;0.85;0.85;;;;;;;;;;5066357;28;20039;-87
2021/11/20 15:34:21;;;;;;;0.90;0.90;;;;;;;;;;5046408;28;20512;-87
2021/11/20 15:36:47;;;;;;;0.90;0.90;;;;;;;;;;5068126;28;20033;-86
2021/11/20 15:39:13;;;;;;;0.80;0.80;;;;;;;;;;5065970;28;20038;-86
2021/11/20 15:41:39;;;;;;;0.83;0.83;;;;;;;;;;5066082;28;20063;-87
2021/11/20 15:44:05;;;;;;;1.00;1.00;;;;;;;;;;5066095;28;20587;-88
2021/11/20 15:46:31;;;;;;;0.90;0.90;;;;;;;;;;5062774;28;20060;-86
2021/11/20 15:48:57;;;;;;;1.97;1.97;;;;;;;;;;5064583;28;20064;-87
2021/11/20 15:51:26;;;;;;;0.80;0.80;;;;;;;;;;5066542;28;20138;-87
2021/11/20 15:53:52;;;;;;;0.88;0.88;;;;;;;;;;5065567;28;20516;-87
2021/11/20 15:56:18;;;;;;;0.80;0.80;;;;;;;;;;5069360;28;20884;-86
2021/11/20 15:58:45;;;;;;;0.90;0.90;;;;;;;;;;5069817;28;20060;-86
2021/11/20 16:01:11;;;;;;;0.90;0.90;;;;;;;;;;5076247;28;20050;-86
2021/11/20 16:03:37;;;;;;;0.80;0.80;;;;;;;;;;5068416;28;20032;-86
2021/11/20 16:06:03;;;;;;;0.82;0.82;;;;;;;;;;5066428;28;20286;-86
2021/11/20 16:08:29;;;;;;;0.80;0.80;;;;;;;;;;5065390;28;20493;-85
2021/11/20 16:10:55;;;;;;;0.80;0.80;;;;;;;;;;5065190;28;20093;-86
2021/11/20 16:13:22;;;;;;;0.80;0.80;;;;;;;;;;5061654;28;20079;-85
2021/11/20 16:15:49;;;;;;;1.50;1.50;;;;;;;;;;5071952;28;20038;-85
2021/11/20 16:18:15;;;;;;;0.90;0.90;;;;;;;;;;5063649;28;20074;-86
2021/11/20 16:20:41;;;;;;;0.70;0.70;;;;;;;;;;5065645;28;20080;-85